| time (UTC) | temp F | wind direction | speed knots | gust knots | rain 1hr in | rain 24hr in | rain mn in | humidity % | barometer mb |
| 20260505124534 | 59 | 231 | 0.9 | 2.6 | 0.00 | 0.06 | 0.06 | 89 | 1008.5 |
| 20260505123029 | 58 | 257 | 0.9 | 2.6 | 0.00 | 0.06 | 0.06 | 90 | 1008.6 |
| 20260505121536 | 57 | 244 | 0.9 | 4.3 | 0.00 | 0.06 | 0.06 | 91 | 1008.7 |
| 20260505120036 | 57 | 244 | 0.9 | 7.0 | 0.00 | 0.06 | 0.06 | 92 | 1008.6 |
| 20260505114538 | 57 | 151 | 1.7 | 4.3 | 0.00 | 0.06 | 0.06 | 92 | 1008.6 |
| 20260505113029 | 57 | 252 | 1.7 | 4.3 | 0.01 | 0.06 | 0.06 | 92 | 1008.7 |
| 20260505111538 | 57 | 233 | 0.9 | 2.6 | 0.02 | 0.06 | 0.06 | 92 | 1008.6 |
| 20260505101534 | 58 | 246 | 0.9 | 5.2 | 0.03 | 0.03 | 0.03 | 87 | 1009.0 |
| 20260505100042 | 59 | 208 | 1.7 | 7.0 | 0.01 | 0.01 | 0.01 | 82 | 1009.1 |
| 20260505094532 | 63 | 193 | 2.6 | 9.6 | 0.00 | 0.00 | 0.00 | 71 | 1009.3 |
| 20260505093035 | 63 | 248 | 2.6 | 5.2 | 0.00 | 0.00 | 0.00 | 63 | 1008.3 |
| 20260505091551 | 63 | 253 | 1.7 | 5.2 | 0.00 | 0.00 | 0.00 | 62 | 1007.9 |
| 20260505090050 | 63 | 239 | 2.6 | 6.1 | 0.00 | 0.00 | 0.00 | 62 | 1007.4 |
| 20260505084537 | 63 | 297 | 1.7 | 7.8 | 0.00 | 0.00 | 0.00 | 62 | 1007.1 |
| 20260505083044 | 64 | 235 | 2.6 | 7.8 | 0.00 | 0.00 | 0.00 | 62 | 1007.0 |
| 20260505081550 | 64 | 273 | 2.6 | 7.0 | 0.00 | 0.00 | 0.00 | 61 | 1006.6 |
| 20260505080041 | 64 | 271 | 3.5 | 7.8 | 0.00 | 0.00 | 0.00 | 61 | 1006.4 |
| 20260505074541 | 64 | 221 | 3.5 | 8.7 | 0.00 | 0.00 | 0.00 | 60 | 1006.5 |
| 20260505073033 | 64 | 235 | 3.5 | 7.8 | 0.00 | 0.00 | 0.00 | 60 | 1006.3 |
| 20260505071531 | 64 | 235 | 2.6 | 8.7 | 0.00 | 0.00 | 0.00 | 60 | 1006.1 |
| 20260505070039 | 65 | 287 | 3.5 | 11.3 | 0.00 | 0.00 | 0.00 | 60 | 1006.4 |
| 20260505064537 | 65 | 267 | 3.5 | 10.4 | 0.00 | 0.00 | 0.00 | 59 | 1006.5 |
| 20260505063041 | 65 | 240 | 4.3 | 10.4 | 0.00 | 0.00 | 0.00 | 58 | 1006.5 |
| 20260505061551 | 65 | 240 | 3.5 | 9.6 | 0.00 | 0.00 | 0.00 | 58 | 1006.4 |
| 20260505060034 | 65 | 224 | 3.5 | 7.8 | 0.00 | 0.00 | 0.00 | 57 | 1006.0 |
| 20260505054536 | 66 | 233 | 4.3 | 9.6 | 0.00 | 0.00 | 0.00 | 57 | 1005.8 |
| 20260505053038 | 65 | 243 | 4.3 | 8.7 | 0.00 | 0.00 | 0.00 | 58 | 1005.8 |
| 20260505051535 | 65 | 248 | 3.5 | 11.3 | 0.00 | 0.00 | 0.00 | 59 | 1005.8 |
| 20260505041532 | 66 | 258 | 3.5 | 6.1 | 0.00 | 0.00 | 0.00 | 58 | 1006.4 |
| 20260505040038 | 67 | 244 | 3.5 | 8.7 | 0.00 | 0.00 | 0.00 | 58 | 1006.5 |
| 20260505034530 | 66 | 248 | 2.6 | 7.8 | 0.00 | 0.00 | 0.00 | 59 | 1006.4 |
| 20260505033045 | 67 | 280 | 2.6 | 6.1 | 0.00 | 0.00 | 0.00 | 58 | 1006.5 |
| 20260505031532 | 67 | 227 | 2.6 | 8.7 | 0.00 | 0.00 | 0.00 | 58 | 1006.4 |
| 20260505030030 | 67 | 256 | 2.6 | 6.1 | 0.00 | 0.00 | 0.00 | 58 | 1006.2 |
| 20260505024552 | 67 | 267 | 2.6 | 7.0 | 0.00 | 0.00 | 0.00 | 59 | 1006.0 |
| 20260505023037 | 67 | 247 | 1.7 | 3.5 | 0.00 | 0.00 | 0.00 | 59 | 1005.7 |
| 20260505021544 | 67 | 233 | 1.7 | 5.2 | 0.00 | 0.00 | 0.00 | 59 | 1005.5 |
| 20260505020039 | 67 | 230 | 1.7 | 3.5 | 0.00 | 0.00 | 0.00 | 59 | 1005.3 |
| 20260505014532 | 67 | 254 | 1.7 | 4.3 | 0.00 | 0.00 | 0.00 | 59 | 1004.9 |
| 20260505013033 | 68 | 232 | 0.9 | 3.5 | 0.00 | 0.00 | 0.00 | 59 | 1004.9 |
| 20260505011542 | 68 | 204 | 1.7 | 5.2 | 0.00 | 0.00 | 0.00 | 58 | 1004.9 |
| 20260505010031 | 68 | 244 | 0.9 | 2.6 | 0.00 | 0.00 | 0.00 | 58 | 1004.9 |
| 20260505004541 | 69 | 212 | 1.7 | 5.2 | 0.00 | 0.00 | 0.00 | 57 | 1004.8 |
| 20260505003032 | 70 | 231 | 1.7 | 7.0 | 0.00 | 0.00 | 0.00 | 55 | 1004.8 |
| 20260505001533 | 71 | 275 | 1.7 | 5.2 | 0.00 | 0.00 | 0.00 | 54 | 1005.0 |
| 20260505000030 | 72 | 265 | 3.5 | 7.8 | 0.00 | 0.00 | 0.00 | 52 | 1005.1 |
| 20260504234530 | 73 | 279 | 2.6 | 6.1 | 0.00 | 0.00 | 0.00 | 51 | 1005.1 |
| 20260504233030 | 73 | 292 | 3.5 | 7.8 | 0.00 | 0.00 | 0.00 | 48 | 1005.5 |
| 20260504231532 | 74 | 230 | 3.5 | 7.0 | 0.00 | 0.00 | 0.00 | 48 | 1005.7 |
| 20260504230031 | 75 | 238 | 2.6 | 9.6 | 0.00 | 0.00 | 0.00 | 48 | 1005.8 |
| 20260504224530 | 75 | 235 | 3.5 | 12.2 | 0.00 | 0.00 | 0.00 | 46 | 1005.9 |
| 20260504223036 | 75 | 226 | 6.1 | 13.9 | 0.00 | 0.00 | 0.00 | 46 | 1006.0 |
| 20260504221536 | 76 | 248 | 6.1 | 20.0 | 0.00 | 0.00 | 0.00 | 44 | 1006.1 |
| 20260504220032 | 77 | 249 | 5.2 | 12.2 | 0.00 | 0.00 | 0.00 | 44 | 1006.0 |
| 20260504214529 | 77 | 247 | 6.1 | 13.0 | 0.00 | 0.00 | 0.00 | 45 | 1006.1 |
| 20260504213030 | 79 | 253 | 5.2 | 15.6 | 0.00 | 0.00 | 0.00 | 44 | 1006.0 |
| 20260504211530 | 77 | 242 | 5.2 | 13.9 | 0.00 | 0.00 | 0.00 | 46 | 1006.5 |
| 20260504210032 | 77 | 216 | 3.5 | 7.0 | 0.00 | 0.00 | 0.00 | 49 | 1006.6 |
| 20260504204546 | 75 | 229 | 2.6 | 7.0 | 0.00 | 0.00 | 0.00 | 50 | 1006.6 |
| 20260504203034 | 77 | 253 | 2.6 | 6.1 | 0.00 | 0.00 | 0.00 | 51 | 1006.8 |
| 20260504201529 | 75 | 236 | 3.5 | 9.6 | 0.00 | 0.00 | 0.00 | 51 | 1007.0 |
| 20260504200036 | 74 | 238 | 2.6 | 8.7 | 0.00 | 0.00 | 0.00 | 53 | 1007.3 |
| 20260504194537 | 74 | 235 | 3.5 | 10.4 | 0.00 | 0.00 | 0.00 | 53 | 1007.5 |
| 20260504193032 | 74 | 241 | 3.5 | 8.7 | 0.00 | 0.00 | 0.00 | 55 | 1007.6 |
| 20260504191530 | 75 | 237 | 2.6 | 7.8 | 0.00 | 0.00 | 0.00 | 55 | 1007.9 |
| 20260504190037 | 74 | 235 | 4.3 | 7.8 | 0.00 | 0.00 | 0.00 | 53 | 1008.2 |
| 20260504184536 | 72 | 227 | 3.5 | 8.7 | 0.00 | 0.00 | 0.00 | 61 | 1008.4 |
| 20260504183032 | 70 | 242 | 2.6 | 9.6 | 0.00 | 0.00 | 0.00 | 59 | 1008.6 |
| 20260504181539 | 70 | 246 | 3.5 | 10.4 | 0.00 | 0.00 | 0.00 | 59 | 1008.4 |
| 20260504180031 | 70 | 281 | 4.3 | 9.6 | 0.00 | 0.00 | 0.00 | 58 | 1008.2 |
| 20260504174533 | 70 | 248 | 3.5 | 10.4 | 0.00 | 0.00 | 0.00 | 61 | 1008.2 |
| 20260504173032 | 69 | 271 | 3.5 | 16.5 | 0.00 | 0.00 | 0.00 | 63 | 1008.2 |
| 20260504171530 | 67 | 244 | 2.6 | 11.3 | 0.00 | 0.00 | 0.00 | 64 | 1008.2 |